Time;durP1;ratioP1;P1;durP2;ratioP2;P2;SDS_P1;SDS_P2;PMS_P1;PMS_P2;Temp;Humidity;BMP_temperature;BMP_pressure;BME280_temperature;BME280_humidity;BME280_pressure;Samples;Min_cycle;Max_cycle;Signal;HPM_P1;HPM_P2
2021/12/11 00:01:04;;;;;;;;;2.00;1.00;;;;;21.46;33.89;100540.41;5039099;28;45407;-49
2021/12/11 00:03:34;;;;;;;;;3.75;1.00;;;;;21.50;33.77;100531.38;5056613;28;45489;-47
2021/12/11 00:06:05;;;;;;;;;1.00;1.00;;;;;21.53;33.68;100544.38;5056571;28;45484;-46
2021/12/11 00:08:33;;;;;;;;;4.00;2.25;;;;;21.56;33.96;100544.16;5056668;28;45269;-47
2021/12/11 00:11:12;;;;;;;;;2.00;2.00;;;;;21.58;34.01;100558.09;5056777;28;45478;-48
2021/12/11 00:13:41;;;;;;;;;2.25;1.00;;;;;21.61;33.80;100560.56;5056359;28;46176;-49
2021/12/11 00:16:15;;;;;;;;;2.75;2.75;;;;;21.65;33.97;100576.22;5056498;28;45854;-48
2021/12/11 00:18:41;;;;;;;;;1.25;1.25;;;;;21.65;33.99;100573.56;5056479;28;45417;-52
2021/12/11 00:21:18;;;;;;;;;1.25;1.00;;;;;21.67;33.78;100575.16;5056066;28;45319;-47
2021/12/11 00:23:59;;;;;;;;;1.50;1.50;;;;;21.69;34.07;100580.31;5056416;28;46463;-49
2021/12/11 00:26:54;;;;;;;;;2.25;1.00;;;;;21.68;33.97;100583.91;5056530;28;45768;-48
2021/12/11 00:29:24;;;;;;;;;2.75;1.50;;;;;21.69;33.80;100594.38;5045512;28;45341;-49
2021/12/11 00:31:57;;;;;;;;;1.00;1.00;;;;;21.69;34.03;100580.31;5056589;28;45212;-47
2021/12/11 00:34:23;;;;;;;;;1.50;1.00;;;;;21.70;33.96;100595.19;5056490;28;45291;-49
2021/12/11 00:36:56;;;;;;;;;2.00;1.00;;;;;21.70;33.94;100597.84;5038238;28;45954;-51
2021/12/11 00:39:22;;;;;;;;;1.00;1.00;;;;;21.70;33.89;100603.13;5056871;28;45408;-51
2021/12/11 00:41:53;;;;;;;;;2.00;1.25;;;;;21.69;33.92;100606.69;5056565;28;45178;-52
2021/12/11 00:44:32;;;;;;;;;2.75;2.00;;;;;21.69;33.94;100614.63;5056146;28;46630;-48
2021/12/11 00:47:31;;;;;;;;;1.75;1.75;;;;;21.68;33.74;100626.97;5056127;28;45289;-51
2021/12/11 00:50:10;;;;;;;;;1.00;1.00;;;;;21.68;33.76;100628.75;5002254;28;45442;-50
2021/12/11 00:52:47;;;;;;;;;2.00;2.00;;;;;21.66;34.16;100635.94;5056477;28;45467;-51
2021/12/11 00:55:31;;;;;;;;;0.75;0.75;;;;;21.64;34.08;100633.38;5037743;28;47661;-52
2021/12/11 00:58:09;;;;;;;;;1.50;1.00;;;;;21.64;34.15;100641.28;5038046;28;45456;-50
2021/12/11 01:00:49;;;;;;;;;3.00;1.25;;;;;21.58;34.13;100633.75;5056010;28;45327;-49
2021/12/11 01:03:19;;;;;;;;;3.25;2.00;;;;;21.58;34.17;100629.28;5056225;28;45510;-51
2021/12/11 01:05:49;;;;;;;;;3.00;1.75;;;;;21.61;34.39;100650.25;5055903;28;46299;-52
2021/12/11 01:08:27;;;;;;;;;0.00;0.00;;;;;21.59;34.19;100657.41;5056069;28;45778;-52
2021/12/11 01:11:18;;;;;;;;;1.00;1.00;;;;;21.58;33.82;100663.56;5056411;28;45290;-49
2021/12/11 01:14:14;;;;;;;;;2.00;1.00;;;;;21.56;33.79;100665.47;5055371;28;45355;-52
2021/12/11 01:16:40;;;;;;;;;1.00;1.00;;;;;21.55;33.80;100676.13;5055676;28;47509;-49
2021/12/11 01:19:07;;;;;;;;;1.75;1.00;;;;;21.53;34.28;100664.81;5055727;28;45756;-53
2021/12/11 01:24:15;;;;;;;;;1.50;1.00;;;;;21.47;34.25;100673.94;5056017;28;45602;-55
2021/12/11 01:26:46;;;;;;;;;2.00;1.00;;;;;21.50;34.27;100688.75;5054752;28;45472;-51
2021/12/11 01:29:12;;;;;;;;;2.00;1.00;;;;;21.47;34.12;100698.53;5037537;28;46477;-53
2021/12/11 01:31:38;;;;;;;;;3.00;1.00;;;;;21.48;34.30;100699.38;5055744;28;45447;-52
2021/12/11 01:34:05;;;;;;;;;2.25;1.00;;;;;21.47;34.29;100695.91;5058788;28;45402;-50
2021/12/11 01:36:31;;;;;;;;;1.00;1.00;;;;;21.46;34.43;100703.88;5059072;28;46514;-50
2021/12/11 01:38:59;;;;;;;;;2.00;1.00;;;;;21.45;34.50;100718.00;5059326;28;45358;-52
2021/12/11 01:41:27;;;;;;;;;4.25;3.00;;;;;21.45;34.40;100718.00;5059481;28;45366;-50
2021/12/11 01:43:58;;;;;;;;;3.75;2.00;;;;;21.44;34.25;100716.34;5059103;28;45624;-53
2021/12/11 01:46:26;;;;;;;;;1.00;1.00;;;;;21.41;34.81;100721.78;5058840;28;45579;-53
2021/12/11 01:48:58;;;;;;;;;0.25;0.25;;;;;21.39;34.79;100726.31;5058624;28;45767;-52
2021/12/11 01:51:47;;;;;;;;;1.00;1.00;;;;;21.38;34.69;100732.53;5058784;28;45235;-52
2021/12/11 01:54:24;;;;;;;;;1.00;1.00;;;;;21.37;35.13;100730.81;5059035;28;45629;-54
2021/12/11 01:57:01;;;;;;;;;2.00;2.00;;;;;21.37;34.82;100730.81;5058602;28;47154;-53
2021/12/11 01:59:36;;;;;;;;;1.00;1.00;;;;;21.36;34.68;100726.50;5059019;28;45237;-52
2021/12/11 02:02:13;;;;;;;;;1.00;1.00;;;;;21.35;34.84;100735.34;5058747;28;45371;-54
2021/12/11 02:04:43;;;;;;;;;2.25;1.50;;;;;21.33;34.74;100739.88;5059006;28;45377;-53
2021/12/11 02:07:16;;;;;;;;;3.00;1.00;;;;;21.33;35.08;100747.78;5041029;28;45549;-50
2021/12/11 02:09:45;;;;;;;;;2.75;1.00;;;;;21.31;35.18;100758.41;5058492;28;45338;-53
2021/12/11 02:12:17;;;;;;;;;1.00;1.00;;;;;21.27;35.00;100749.84;5058475;28;45485;-52
2021/12/11 02:14:48;;;;;;;;;1.75;1.75;;;;;21.28;34.83;100762.09;5058653;28;45407;-52
2021/12/11 02:17:19;;;;;;;;;1.00;1.00;;;;;21.26;35.11;100755.22;5058546;28;45198;-52
2021/12/11 02:19:47;;;;;;;;;1.50;1.25;;;;;21.23;35.20;100761.50;5058107;28;45935;-51
2021/12/11 02:22:17;;;;;;;;;1.00;1.00;;;;;21.23;35.17;100769.41;5058593;28;45269;-51
2021/12/11 02:24:53;;;;;;;;;1.00;1.00;;;;;21.22;35.17;100775.59;5058483;28;45305;-49
2021/12/11 02:27:29;;;;;;;;;1.25;0.50;;;;;21.21;34.76;100787.13;5058288;28;46296;-54
2021/12/11 02:30:09;;;;;;;;;2.50;2.50;;;;;21.19;34.80;100785.50;5058334;28;45549;-52
2021/12/11 02:32:43;;;;;;;;;1.00;1.00;;;;;21.20;35.12;100788.06;5058165;28;45281;-53
2021/12/11 02:35:16;;;;;;;;;1.25;1.00;;;;;21.22;34.78;100796.69;5058354;28;45402;-51
2021/12/11 02:37:51;;;;;;;;;1.00;1.00;;;;;21.24;35.00;100783.44;5058169;28;45250;-49
2021/12/11 02:40:34;;;;;;;;;2.00;1.00;;;;;21.28;34.65;100790.22;5057856;28;45723;-52
2021/12/11 02:43:19;;;;;;;;;1.25;1.25;;;;;21.30;34.92;100791.84;5058014;28;45411;-52
2021/12/11 02:45:56;;;;;;;;;1.75;1.00;;;;;21.35;34.75;100793.34;5057992;28;45593;-53
2021/12/11 02:48:27;;;;;;;;;1.00;1.00;;;;;21.37;34.59;100799.38;5057805;28;45522;-51
2021/12/11 02:50:59;;;;;;;;;1.00;1.00;;;;;21.41;34.63;100790.34;5057914;28;45698;-53
2021/12/11 02:53:35;;;;;;;;;1.50;1.50;;;;;21.43;34.51;100806.94;5058038;28;45368;-52
2021/12/11 02:56:13;;;;;;;;;2.75;1.25;;;;;21.47;34.55;100795.25;5058360;28;45223;-53
2021/12/11 02:58:44;;;;;;;;;2.25;1.00;;;;;21.50;34.22;100804.78;5057787;28;46055;-52
2021/12/11 03:01:25;;;;;;;;;1.00;1.00;;;;;21.51;34.66;100802.03;5057784;28;45651;-53
2021/12/11 03:04:01;;;;;;;;;2.00;2.00;;;;;21.55;34.72;100814.09;5057915;28;45315;-52
2021/12/11 03:06:35;;;;;;;;;0.50;0.00;;;;;21.57;34.69;100812.22;5057890;28;45506;-52
2021/12/11 03:09:00;;;;;;;;;1.00;1.00;;;;;21.60;34.21;100819.97;5057632;28;46275;-53
2021/12/11 03:11:29;;;;;;;;;3.00;2.00;;;;;21.58;34.11;100808.63;5057451;28;45368;-53
2021/12/11 03:13:58;;;;;;;;;2.00;2.00;;;;;21.66;34.09;100823.19;5057672;28;45232;-52
2021/12/11 03:16:26;;;;;;;;;1.00;1.00;;;;;21.68;34.35;100834.47;5057736;28;45526;-53
2021/12/11 03:18:54;;;;;;;;;2.25;2.00;;;;;21.69;34.49;100836.19;5057077;28;45593;-50
2021/12/11 03:21:20;;;;;;;;;1.00;1.00;;;;;21.72;34.25;100841.28;5057264;28;45320;-52
2021/12/11 03:23:46;;;;;;;;;0.25;0.25;;;;;21.73;34.37;100848.25;5057521;28;45328;-53
2021/12/11 03:26:11;;;;;;;;;1.25;1.00;;;;;21.74;34.17;100857.88;5039421;28;45449;-53
2021/12/11 03:28:37;;;;;;;;;1.00;1.00;;;;;21.75;34.19;100864.84;5057185;28;46189;-49
2021/12/11 03:31:06;;;;;;;;;0.00;0.00;;;;;21.76;34.06;100866.53;5057465;28;45778;-51
2021/12/11 03:33:40;;;;;;;;;1.00;1.00;;;;;21.75;34.12;100870.13;5039412;28;45435;-53
2021/12/11 03:36:09;;;;;;;;;0.50;0.50;;;;;21.76;34.05;100875.28;5057534;28;45451;-54
2021/12/11 03:38:38;;;;;;;;;1.25;1.00;;;;;21.77;33.84;100878.78;5057370;28;46705;-52
2021/12/11 03:41:05;;;;;;;;;2.00;2.00;;;;;21.77;33.68;100884.06;5057370;28;45694;-51
2021/12/11 03:43:31;;;;;;;;;1.00;1.00;;;;;21.77;33.96;100881.44;5057538;28;45399;-51
2021/12/11 03:46:00;;;;;;;;;2.00;2.00;;;;;21.73;33.88;100885.19;5057190;28;45212;-53
2021/12/11 03:48:49;;;;;;;;;1.25;1.00;;;;;21.76;33.74;100892.94;5056861;28;45569;-51
2021/12/11 03:51:18;;;;;;;;;1.00;0.00;;;;;21.75;33.83;100893.84;5056995;28;45487;-50
2021/12/11 03:53:43;;;;;;;;;1.00;1.00;;;;;21.74;33.60;100900.06;5057153;28;45245;-52
2021/12/11 03:56:14;;;;;;;;;0.75;0.75;;;;;21.74;33.38;100902.72;5056199;28;45319;-48
2021/12/11 03:58:48;;;;;;;;;0.00;0.00;;;;;21.73;33.48;100901.00;5056839;28;46446;-50
2021/12/11 04:01:35;;;;;;;;;1.00;1.00;;;;;21.73;33.79;100906.28;5056882;28;45833;-50
2021/12/11 04:04:08;;;;;;;;;1.00;1.00;;;;;21.72;33.57;100912.50;5056268;28;45325;-54
2021/12/11 04:06:34;;;;;;;;;1.50;0.75;;;;;21.70;33.75;100906.47;5057325;28;45323;-53
2021/12/11 04:09:04;;;;;;;;;0.25;0.25;;;;;21.69;33.35;100912.66;5038279;28;46179;-51
2021/12/11 04:11:33;;;;;;;;;0.00;0.00;;;;;21.68;33.48;100913.59;5056435;28;45292;-54
2021/12/11 04:14:05;;;;;;;;;1.00;1.00;;;;;21.68;33.65;100913.59;5056737;28;45370;-52
2021/12/11 04:16:32;;;;;;;;;0.25;0.25;;;;;21.66;33.76;100911.06;5057053;28;45330;-51
2021/12/11 04:18:58;;;;;;;;;1.00;1.00;;;;;21.62;33.58;100915.69;5037925;28;47298;-54
2021/12/11 04:21:24;;;;;;;;;2.75;1.00;;;;;21.62;33.37;100918.31;5056330;28;45407;-53
2021/12/11 04:23:49;;;;;;;;;1.00;1.00;;;;;21.60;33.46;100922.84;5056607;28;45442;-52
2021/12/11 04:26:16;;;;;;;;;0.25;0.25;;;;;21.59;33.78;100926.41;5056732;28;45233;-52
2021/12/11 04:28:45;;;;;;;;;0.00;0.00;;;;;21.57;33.60;100920.34;5056500;28;45630;-52
2021/12/11 04:31:18;;;;;;;;;1.00;1.00;;;;;21.56;33.67;100934.47;5056198;28;45304;-53
2021/12/11 04:33:46;;;;;;;;;1.75;1.75;;;;;21.55;33.16;100935.41;5056408;28;45300;-54
2021/12/11 04:36:17;;;;;;;;;2.25;1.00;;;;;21.55;33.17;100940.66;5056477;28;45540;-53
2021/12/11 04:38:44;;;;;;;;;3.00;2.00;;;;;21.53;33.44;100941.69;5056252;28;45640;-53
2021/12/11 04:41:16;;;;;;;;;2.00;0.00;;;;;21.52;33.29;100948.78;5056252;28;45697;-51
2021/12/11 04:43:42;;;;;;;;;1.00;0.00;;;;;21.51;33.58;100948.84;5038704;28;45393;-51
2021/12/11 04:46:10;;;;;;;;;1.00;0.00;;;;;21.50;33.36;100955.09;5056785;28;45589;-53
2021/12/11 04:48:54;;;;;;;;;1.00;1.00;;;;;21.49;33.58;100962.13;5054858;28;46964;-53
2021/12/11 04:51:35;;;;;;;;;1.00;1.00;;;;;21.47;33.12;100964.88;5055896;28;45701;-54
2021/12/11 04:54:27;;;;;;;;;0.50;0.00;;;;;21.46;33.25;100967.56;5056089;28;45359;-53
2021/12/11 04:57:33;;;;;;;;;0.00;0.00;;;;;21.44;33.15;100969.47;5056408;28;45450;-52
2021/12/11 05:00:10;;;;;;;;;2.25;1.00;;;;;21.42;33.35;100972.19;5055715;28;45402;-54
2021/12/11 05:08:25;;;;;;;;;1.00;1.00;;;;;21.39;33.18;100966.22;5058591;28;45353;-52
2021/12/11 05:13:15;;;;;;;;;1.75;1.00;;;;;21.35;33.23;100959.44;5059447;28;45340;-52
2021/12/11 05:15:44;;;;;;;;;2.00;0.75;;;;;21.35;33.39;100969.97;5059491;28;45339;-49
2021/12/11 05:18:14;;;;;;;;;1.75;1.00;;;;;21.27;33.30;100967.78;5059675;28;45198;-51
2021/12/11 05:20:42;;;;;;;;;2.00;2.00;;;;;21.31;33.19;100967.53;5059502;28;46087;-49
2021/12/11 05:23:07;;;;;;;;;0.75;0.75;;;;;21.31;33.12;100969.31;5059571;28;45197;-52
2021/12/11 05:25:32;;;;;;;;;1.00;1.00;;;;;21.28;33.33;100980.88;5059303;28;45251;-48
2021/12/11 05:27:58;;;;;;;;;2.00;1.00;;;;;21.28;33.06;100978.25;5059583;28;45465;-50
2021/12/11 05:30:28;;;;;;;;;2.00;0.25;;;;;21.31;33.41;100987.75;5059018;28;46387;-52
2021/12/11 05:32:56;;;;;;;;;2.00;0.00;;;;;21.31;33.45;100987.75;5059098;28;46477;-51
2021/12/11 05:35:22;;;;;;;;;1.75;1.00;;;;;21.35;33.71;100998.97;5059316;28;45268;-50
2021/12/11 05:37:47;;;;;;;;;1.50;1.00;;;;;21.38;33.25;101009.34;5059263;28;45514;-49
2021/12/11 05:40:18;;;;;;;;;2.00;1.00;;;;;21.39;33.46;101011.06;5040861;28;47686;-50
2021/12/11 05:42:44;;;;;;;;;2.00;1.25;;;;;21.42;33.50;101019.63;5058979;28;45391;-50
2021/12/11 05:45:09;;;;;;;;;0.25;0.00;;;;;21.45;33.66;101022.13;5059355;28;45256;-48
2021/12/11 05:47:35;;;;;;;;;1.00;1.00;;;;;21.49;33.86;101022.78;5059238;28;45285;-48
2021/12/11 05:50:00;;;;;;;;;0.00;0.00;;;;;21.52;33.33;101027.03;5058726;28;46733;-49
2021/12/11 05:52:26;;;;;;;;;0.00;0.00;;;;;21.54;33.35;101028.66;5058856;28;45417;-48
2021/12/11 05:54:53;;;;;;;;;1.75;0.75;;;;;21.59;33.65;101041.63;5058863;28;45455;-50
2021/12/11 05:57:21;;;;;;;;;1.00;1.00;;;;;21.61;33.39;101045.84;5058947;28;45238;-50
2021/12/11 05:59:49;;;;;;;;;2.00;0.50;;;;;21.65;33.46;101050.97;5058639;28;45531;-50
2021/12/11 06:02:22;;;;;;;;;2.00;1.00;;;;;21.65;33.75;101056.25;5058579;28;45835;-48
2021/12/11 06:04:52;;;;;;;;;1.00;1.00;;;;;21.70;33.31;101072.66;5058770;28;45484;-50
2021/12/11 06:07:20;;;;;;;;;0.50;0.50;;;;;21.70;33.25;101068.25;5058824;28;45545;-48
2021/12/11 06:09:54;;;;;;;;;1.25;1.00;;;;;21.74;33.26;101077.66;5058351;28;45506;-50
2021/12/11 06:12:20;;;;;;;;;0.00;0.00;;;;;21.75;33.34;101082.00;5058571;28;45588;-50
2021/12/11 06:14:48;;;;;;;;;1.50;1.25;;;;;21.77;33.52;101077.50;5040479;28;45265;-50
2021/12/11 06:17:19;;;;;;;;;1.75;1.00;;;;;21.80;33.10;101083.53;5058708;28;45385;-51
2021/12/11 06:19:51;;;;;;;;;1.25;1.25;;;;;21.76;32.83;101072.31;5057367;28;45398;-50
2021/12/11 06:22:17;;;;;;;;;2.00;2.00;;;;;21.77;32.41;101076.66;5058266;28;45432;-49
2021/12/11 06:24:50;;;;;;;;;3.00;3.00;;;;;21.76;32.40;101081.06;5059318;28;45332;-51
2021/12/11 06:27:16;;;;;;;;;0.00;0.00;;;;;21.76;32.04;101096.06;5058568;28;45438;-52
2021/12/11 06:29:42;;;;;;;;;3.00;2.50;;;;;21.74;31.60;101090.84;5058387;28;45344;-49
2021/12/11 06:32:08;;;;;;;;;2.00;2.00;;;;;21.73;31.54;101080.41;5058015;28;45363;-49
2021/12/11 06:34:34;;;;;;;;;3.75;1.75;;;;;21.73;31.41;101093.59;5058218;28;45379;-51
2021/12/11 06:37:00;;;;;;;;;3.25;3.25;;;;;21.72;31.61;101094.53;5058235;28;45325;-52
2021/12/11 06:39:26;;;;;;;;;2.50;2.00;;;;;21.72;31.87;101095.34;5057918;28;46773;-50
2021/12/11 06:41:57;;;;;;;;;3.00;1.00;;;;;21.75;31.58;101099.63;5057864;28;45894;-48
2021/12/11 06:44:29;;;;;;;;;2.00;2.00;;;;;21.74;31.78;101105.84;5058054;28;45237;-50
2021/12/11 06:46:58;;;;;;;;;5.25;1.50;;;;;21.75;31.90;101107.53;5058073;28;45490;-52
2021/12/11 06:49:24;;;;;;;;;3.50;3.50;;;;;21.76;31.66;101117.16;5057613;28;46508;-52
2021/12/11 06:51:50;;;;;;;;;1.75;1.75;;;;;21.76;32.12;101122.44;5057817;28;45349;-54
2021/12/11 06:54:16;;;;;;;;;1.50;1.50;;;;;21.77;31.64;101134.69;5057881;28;45348;-54
2021/12/11 06:56:42;;;;;;;;;2.00;2.00;;;;;21.75;32.04;101141.84;5058347;28;45422;-51
2021/12/11 06:59:09;;;;;;;;;5.50;1.00;;;;;21.73;31.83;101144.53;5057590;28;45401;-54
2021/12/11 07:01:35;;;;;;;;;2.00;1.75;;;;;21.71;31.85;101141.16;5057653;28;45326;-53
2021/12/11 07:04:01;;;;;;;;;1.75;1.75;;;;;21.71;31.92;101150.84;5039573;28;45774;-53
2021/12/11 07:06:30;;;;;;;;;2.00;2.00;;;;;21.69;31.73;101156.22;5057834;28;45333;-53
2021/12/11 07:08:56;;;;;;;;;1.75;1.75;;;;;21.65;31.99;101152.03;5057439;28;46571;-52
2021/12/11 07:11:22;;;;;;;;;2.00;2.00;;;;;21.66;31.89;101158.19;5057346;28;45356;-54
2021/12/11 07:13:48;;;;;;;;;1.00;1.00;;;;;21.66;31.95;101163.47;5057517;28;45453;-53
2021/12/11 07:16:14;;;;;;;;;2.00;1.75;;;;;21.62;32.02;101179.44;5058062;28;45434;-54
2021/12/11 07:18:40;;;;;;;;;1.25;1.00;;;;;21.61;31.66;101183.03;5056966;28;46307;-54
2021/12/11 07:21:07;;;;;;;;;1.75;1.75;;;;;21.59;31.96;101195.44;5057310;28;45741;-53
2021/12/11 07:23:34;;;;;;;;;2.50;1.75;;;;;21.59;32.17;101199.88;5057445;28;45404;-53
2021/12/11 07:26:17;;;;;;;;;1.25;0.00;;;;;21.58;31.91;101200.78;5057538;28;45225;-53
2021/12/11 07:28:49;;;;;;;;;2.25;2.25;;;;;21.55;32.11;101196.50;5057521;28;45354;-55
2021/12/11 07:31:15;;;;;;;;;2.75;2.00;;;;;21.54;31.77;101193.94;5057349;28;45280;-53
2021/12/11 07:33:41;;;;;;;;;2.25;1.00;;;;;21.51;32.24;101202.88;5057294;28;45323;-53
2021/12/11 07:36:07;;;;;;;;;2.25;2.00;;;;;21.50;32.19;101201.19;5057353;28;45244;-52
2021/12/11 07:38:33;;;;;;;;;1.25;1.25;;;;;21.49;31.93;101210.03;5057054;28;46433;-53
2021/12/11 07:41:06;;;;;;;;;4.50;3.00;;;;;21.50;32.29;101208.25;5056934;28;45423;-53
2021/12/11 07:43:32;;;;;;;;;2.25;1.50;;;;;21.47;32.02;101217.16;5056952;28;45395;-53
2021/12/11 07:45:58;;;;;;;;;2.00;2.00;;;;;21.43;32.50;101216.47;5039179;28;45407;-51
2021/12/11 07:48:24;;;;;;;;;3.00;1.50;;;;;21.42;32.25;101229.75;5056811;28;45509;-53
2021/12/11 07:50:50;;;;;;;;;2.00;2.00;;;;;21.39;32.38;101228.09;5056691;28;45372;-54
2021/12/11 07:53:20;;;;;;;;;2.25;1.75;;;;;21.37;31.80;101242.31;5039087;28;45357;-52
2021/12/11 07:55:46;;;;;;;;;1.00;1.00;;;;;21.31;32.27;101254.91;5039222;28;45541;-54
2021/12/11 07:58:12;;;;;;;;;1.00;1.00;;;;;21.29;32.02;101256.75;5042647;28;45955;-55
2021/12/11 08:00:40;;;;;;;;;3.00;1.25;;;;;21.29;32.16;101251.47;5035848;28;45376;-54
2021/12/11 08:03:07;;;;;;;;;0.00;0.00;;;;;21.28;32.36;101248.91;5036369;28;45500;-53
2021/12/11 08:05:33;;;;;;;;;1.75;1.75;;;;;21.26;31.84;101246.38;5036343;28;45399;-51
2021/12/11 08:08:00;;;;;;;;;2.00;2.00;;;;;21.25;32.02;101247.28;5035942;28;46508;-51
2021/12/11 08:10:27;;;;;;;;;1.00;1.00;;;;;21.25;32.36;101264.91;5035801;28;45434;-50
2021/12/11 08:12:53;;;;;;;;;1.50;1.50;;;;;21.23;32.20;101267.59;5035487;28;45776;-54
2021/12/11 08:15:18;;;;;;;;;2.00;2.00;;;;;21.21;32.32;101280.03;5036733;28;45659;-52
2021/12/11 08:17:51;;;;;;;;;2.50;2.00;;;;;21.20;32.21;101280.97;5036200;28;45731;-53
2021/12/11 08:20:16;;;;;;;;;2.00;2.00;;;;;21.19;32.06;101284.53;5056040;28;45382;-51
2021/12/11 08:22:42;;;;;;;;;1.00;1.00;;;;;21.19;32.14;101284.53;5054819;28;45222;-52
2021/12/11 08:25:08;;;;;;;;;2.00;1.25;;;;;21.17;32.55;101287.22;5056047;28;45262;-55
2021/12/11 08:27:34;;;;;;;;;1.50;1.50;;;;;21.16;32.05;101285.53;5055053;28;46468;-54
2021/12/11 08:30:00;;;;;;;;;2.00;1.00;;;;;21.15;31.97;101283.84;5054909;28;45395;-51
2021/12/11 08:32:26;;;;;;;;;2.00;1.25;;;;;21.16;32.46;101292.59;5054862;28;45435;-54
2021/12/11 08:34:52;;;;;;;;;2.00;2.00;;;;;21.14;32.25;101295.31;5056062;28;45367;-54
2021/12/11 08:37:20;;;;;;;;;2.00;2.00;;;;;21.14;32.30;101299.72;5055871;28;46339;-54
2021/12/11 08:39:46;;;;;;;;;4.00;1.25;;;;;21.09;31.95;101291.19;5055851;28;45450;-50
2021/12/11 08:42:18;;;;;;;;;1.00;1.00;;;;;21.13;32.21;101301.50;5057549;28;45293;-48
2021/12/11 08:44:51;;;;;;;;;3.00;1.25;;;;;21.12;32.03;101291.88;5059746;28;45332;-47
2021/12/11 08:47:19;;;;;;;;;1.00;1.00;;;;;21.12;32.51;101285.75;5059496;28;47280;-51
2021/12/11 08:49:45;;;;;;;;;1.25;1.25;;;;;21.12;32.33;101296.28;5059157;28;45827;-50
2021/12/11 08:52:34;;;;;;;;;1.00;1.00;;;;;21.07;32.04;101295.69;5059093;28;45418;-53
2021/12/11 08:55:01;;;;;;;;;1.00;1.00;;;;;21.11;32.03;101315.69;5059007;28;45610;-50
2021/12/11 08:57:32;;;;;;;;;5.25;2.75;;;;;21.07;32.38;101309.69;5058892;28;46595;-51
2021/12/11 09:00:05;;;;;;;;;0.00;0.00;;;;;21.07;32.01;101314.97;5058982;28;45386;-50
2021/12/11 09:02:40;;;;;;;;;5.00;2.75;;;;;21.06;32.14;101315.06;5059100;28;45497;-50
2021/12/11 09:05:15;;;;;;;;;0.75;0.75;;;;;21.07;32.10;101320.25;5059449;28;45370;-51
2021/12/11 09:08:00;;;;;;;;;3.50;2.00;;;;;21.04;32.23;101319.56;5058989;28;46445;-49
2021/12/11 09:10:46;;;;;;;;;2.00;2.00;;;;;21.06;32.14;101322.97;5058919;28;45489;-47
2021/12/11 09:13:21;;;;;;;;;0.50;0.50;;;;;21.07;32.19;101329.94;5058704;28;45446;-52
2021/12/11 09:15:51;;;;;;;;;3.25;0.25;;;;;21.07;32.16;101337.84;5059460;28;45491;-51
2021/12/11 09:18:25;;;;;;;;;2.00;2.00;;;;;21.05;32.23;101344.97;5058706;28;45726;-48
2021/12/11 09:21:28;;;;;;;;;1.25;1.25;;;;;21.06;31.98;101347.53;5058147;28;45733;-49
2021/12/11 09:24:04;;;;;;;;;1.00;1.00;;;;;21.05;32.36;101352.88;5054002;28;45580;-52
2021/12/11 09:26:39;;;;;;;;;2.25;1.25;;;;;21.05;32.47;101369.56;5059273;28;45574;-51
2021/12/11 09:29:13;;;;;;;;;3.00;2.00;;;;;21.03;32.21;101371.41;5058772;28;45494;-51
2021/12/11 09:32:17;;;;;;;;;1.75;1.75;;;;;20.99;32.38;101368.09;5057923;28;45413;-52
2021/12/11 09:34:58;;;;;;;;;5.00;1.75;;;;;21.01;32.28;101376.75;5027762;28;45398;-51
2021/12/11 09:37:25;;;;;;;;;3.75;2.50;;;;;21.03;32.78;101383.72;5059173;28;45362;-50
2021/12/11 09:39:56;;;;;;;;;1.50;1.50;;;;;21.06;32.56;101389.69;5059120;28;46296;-53
2021/12/11 09:42:21;;;;;;;;;2.25;1.00;;;;;21.08;32.84;101394.91;5059042;28;45733;-53
2021/12/11 09:45:04;;;;;;;;;2.00;2.00;;;;;21.08;32.75;101395.75;5059086;28;45379;-53
2021/12/11 09:47:35;;;;;;;;;2.50;2.00;;;;;21.08;32.77;101401.03;5059058;28;45310;-55
2021/12/11 09:50:12;;;;;;;;;3.00;3.00;;;;;21.06;32.75;101399.41;5058854;28;46443;-54
2021/12/11 09:52:41;;;;;;;;;2.00;0.50;;;;;21.04;32.31;101398.63;5058207;28;45627;-52
2021/12/11 09:55:36;;;;;;;;;4.00;2.00;;;;;21.04;32.40;101401.25;5058226;28;45407;-55
2021/12/11 09:58:08;;;;;;;;;2.00;1.00;;;;;21.00;32.58;101401.38;5038830;28;45608;-52
2021/12/11 10:00:49;;;;;;;;;1.75;1.25;;;;;21.01;32.35;101415.44;5058716;28;46434;-50
2021/12/11 10:03:20;;;;;;;;;1.75;0.00;;;;;21.00;32.65;101419.84;5058538;28;45331;-47
2021/12/11 10:06:07;;;;;;;;;1.00;1.00;;;;;20.96;32.61;101417.44;5058793;28;45335;-51
2021/12/11 10:08:40;;;;;;;;;7.25;6.00;;;;;20.91;32.84;101422.91;5040493;28;45452;-50
2021/12/11 10:11:21;;;;;;;;;5.25;3.00;;;;;20.90;32.38;101426.47;5058246;28;47546;-50
2021/12/11 10:14:00;;;;;;;;;5.50;1.50;;;;;20.92;32.88;101436.97;5058488;28;45443;-48
2021/12/11 10:16:31;;;;;;;;;4.00;2.00;;;;;20.90;32.71;101434.38;5058459;28;45317;-47
2021/12/11 10:18:56;;;;;;;;;5.00;4.00;;;;;20.91;33.15;101430.81;5058441;28;45368;-46
2021/12/11 10:21:35;;;;;;;;;3.25;2.25;;;;;20.93;33.40;101433.41;5058458;28;46163;-49
2021/12/11 10:24:07;;;;;;;;;1.75;1.75;;;;;20.92;32.96;101435.16;5058182;28;45311;-48
2021/12/11 10:26:34;;;;;;;;;1.25;1.25;;;;;20.92;33.36;101429.06;5058400;28;45395;-47
2021/12/11 10:29:03;;;;;;;;;3.00;1.00;;;;;20.92;33.11;101429.91;5058522;28;45458;-46
2021/12/11 10:31:28;;;;;;;;;3.00;2.00;;;;;20.94;33.34;101435.13;5057898;28;45574;-47
2021/12/11 10:33:55;;;;;;;;;3.67;1.33;;;;;20.94;32.96;101432.47;5058434;28;45341;-48
2021/12/11 10:36:27;;;;;;;;;2.00;2.00;;;;;20.93;33.16;101426.34;5058548;28;45273;-47
2021/12/11 10:38:56;;;;;;;;;2.00;2.00;;;;;20.95;33.36;101431.53;5040226;28;45327;-47
2021/12/11 10:41:22;;;;;;;;;2.50;2.50;;;;;20.93;33.75;101431.59;5058303;28;46302;-49
2021/12/11 10:43:54;;;;;;;;;3.25;2.00;;;;;20.96;33.30;101438.50;5057920;28;45800;-49
2021/12/11 10:46:23;;;;;;;;;2.75;2.00;;;;;20.94;33.27;101441.22;5058167;28;45352;-49
2021/12/11 10:48:49;;;;;;;;;2.75;2.75;;;;;20.95;33.52;101436.78;5058176;28;45352;-49
2021/12/11 10:51:18;;;;;;;;;2.25;2.25;;;;;20.95;33.38;101447.34;5057598;28;46504;-48
2021/12/11 10:53:47;;;;;;;;;3.75;2.00;;;;;20.94;33.23;101446.50;5057761;28;45403;-47
2021/12/11 10:56:16;;;;;;;;;2.00;2.00;;;;;20.94;33.78;101451.75;5057885;28;45363;-52
2021/12/11 10:58:46;;;;;;;;;1.25;1.25;;;;;20.95;33.38;101455.25;5040013;28;45332;-51
2021/12/11 11:01:29;;;;;;;;;2.50;2.50;;;;;20.94;33.39;101450.94;5057629;28;46380;-48
2021/12/11 11:03:59;;;;;;;;;3.00;2.75;;;;;20.94;33.36;101445.66;5057537;28;45351;-49
2021/12/11 11:06:26;;;;;;;;;4.00;3.75;;;;;20.93;33.28;101450.06;5057890;28;45494;-47
2021/12/11 11:08:53;;;;;;;;;1.25;1.00;;;;;20.95;33.41;101442.94;5058317;28;45218;-49
2021/12/11 11:11:21;;;;;;;;;2.00;2.00;;;;;20.96;33.27;101449.91;5056907;28;45285;-47
2021/12/11 11:13:47;;;;;;;;;3.00;2.25;;;;;20.99;33.63;101448.91;5057496;28;45729;-47
2021/12/11 11:16:14;;;;;;;;;1.00;1.00;;;;;21.03;33.44;101460.16;5057441;28;45403;-48
2021/12/11 11:18:40;;;;;;;;;2.75;2.00;;;;;21.08;33.42;101460.81;5057474;28;45435;-49
2021/12/11 11:21:10;;;;;;;;;1.25;1.00;;;;;21.12;33.60;101457.06;5057387;28;45351;-51
2021/12/11 11:23:37;;;;;;;;;0.25;0.25;;;;;21.14;33.89;101440.28;5057380;28;45428;-49
2021/12/11 11:26:08;;;;;;;;;2.00;2.00;;;;;21.21;33.81;101448.75;5057431;28;45248;-50
2021/12/11 11:28:35;;;;;;;;;3.00;2.00;;;;;21.23;33.77;101441.59;5057408;28;45339;-53
2021/12/11 11:31:06;;;;;;;;;2.25;1.75;;;;;21.30;33.17;101437.75;5056825;28;47141;-50
2021/12/11 11:33:32;;;;;;;;;3.50;2.50;;;;;21.34;33.78;101437.56;5057297;28;45715;-53
2021/12/11 11:36:05;;;;;;;;;6.25;2.00;;;;;21.39;33.31;101443.50;5057252;28;45350;-52
2021/12/11 11:38:35;;;;;;;;;3.50;2.00;;;;;21.41;33.07;101439.00;5057505;28;45352;-47
2021/12/11 11:41:09;;;;;;;;;4.25;2.75;;;;;21.45;33.46;101451.09;5056915;28;45526;-51
2021/12/11 11:43:35;;;;;;;;;3.75;2.75;;;;;21.49;33.43;101449.16;5056952;28;45312;-49
2021/12/11 11:46:01;;;;;;;;;3.75;2.75;;;;;21.51;33.38;101449.91;5039088;28;45329;-51
2021/12/11 11:48:29;;;;;;;;;5.00;3.75;;;;;21.54;33.25;101449.78;5057426;28;45312;-48
2021/12/11 11:50:57;;;;;;;;;3.00;3.00;;;;;21.57;33.03;101458.38;5056892;28;46523;-49
2021/12/11 11:53:26;;;;;;;;;4.75;3.00;;;;;21.57;32.90;101454.91;5056820;28;45421;-54